Time;durP1;ratioP1;P1;durP2;ratioP2;P2;SDS_P1;SDS_P2;PMS_P1;PMS_P2;Temp;Humidity;BMP_temperature;BMP_pressure;BME280_temperature;BME280_humidity;BME280_pressure;Samples;Min_cycle;Max_cycle;Signal;HPM_P1;HPM_P2
2021/09/12 00:01:29;;;;;;;5.45;3.20;;;;;;;;;;5063648;28;20403;-71
2021/09/12 00:03:55;;;;;;;5.28;3.30;;;;;;;;;;5061064;28;20556;-71
2021/09/12 00:06:21;;;;;;;5.93;3.40;;;;;;;;;;5063234;28;20013;-72
2021/09/12 00:08:47;;;;;;;3.72;3.08;;;;;;;;;;5058905;28;20033;-71
2021/09/12 00:11:13;;;;;;;4.45;3.50;;;;;;;;;;5061282;28;20031;-71
2021/09/12 00:13:41;;;;;;;7.00;4.43;;;;;;;;;;5056449;28;20039;-72
2021/09/12 00:16:07;;;;;;;5.05;3.45;;;;;;;;;;5058317;28;20040;-71
2021/09/12 00:18:33;;;;;;;6.72;4.07;;;;;;;;;;5058084;28;20353;-71
2021/09/12 00:20:59;;;;;;;6.28;3.70;;;;;;;;;;5058237;28;20463;-71
2021/09/12 00:23:25;;;;;;;8.57;3.85;;;;;;;;;;5062412;28;20029;-71
2021/09/12 00:25:51;;;;;;;4.68;3.45;;;;;;;;;;5054904;28;20029;-71
2021/09/12 00:28:18;;;;;;;9.23;4.03;;;;;;;;;;5056962;28;20028;-71
2021/09/12 00:30:44;;;;;;;5.18;3.85;;;;;;;;;;5061666;28;20029;-71
2021/09/12 00:33:10;;;;;;;6.70;3.88;;;;;;;;;;5063848;28;20125;-71
2021/09/12 00:35:36;;;;;;;6.65;4.72;;;;;;;;;;5058943;28;20028;-71
2021/09/12 00:38:02;;;;;;;5.38;4.20;;;;;;;;;;5058629;28;21310;-71
2021/09/12 00:40:28;;;;;;;5.75;3.83;;;;;;;;;;5054291;28;20037;-71
2021/09/12 00:42:55;;;;;;;5.80;3.63;;;;;;;;;;5053048;28;20028;-71
2021/09/12 00:45:21;;;;;;;4.57;4.05;;;;;;;;;;5062544;28;20086;-71
2021/09/12 00:47:47;;;;;;;4.53;3.60;;;;;;;;;;5058671;28;20021;-71
2021/09/12 00:50:14;;;;;;;6.45;4.10;;;;;;;;;;5056018;28;20108;-71
2021/09/12 00:52:43;;;;;;;8.25;4.03;;;;;;;;;;5061949;28;20537;-71
2021/09/12 00:55:10;;;;;;;6.15;4.15;;;;;;;;;;5057388;28;20581;-71
2021/09/12 00:57:36;;;;;;;5.45;3.95;;;;;;;;;;5059942;28;20021;-71
2021/09/12 01:00:04;;;;;;;6.38;4.07;;;;;;;;;;5058570;28;20603;-71
2021/09/12 01:02:30;;;;;;;6.25;4.50;;;;;;;;;;5059320;28;20094;-71
2021/09/12 01:04:57;;;;;;;4.82;4.00;;;;;;;;;;5056052;28;20032;-71
2021/09/12 01:07:23;;;;;;;6.10;3.83;;;;;;;;;;5057862;28;20115;-71
2021/09/12 01:09:49;;;;;;;9.65;4.43;;;;;;;;;;5057057;28;20036;-72
2021/09/12 01:12:16;;;;;;;6.97;3.90;;;;;;;;;;5055605;28;20029;-72
2021/09/12 01:14:42;;;;;;;7.70;4.32;;;;;;;;;;5059645;28;20040;-71
2021/09/12 01:17:08;;;;;;;8.90;4.25;;;;;;;;;;5055022;28;21542;-71
2021/09/12 01:19:34;;;;;;;10.40;3.60;;;;;;;;;;5054160;28;20443;-71
2021/09/12 01:22:02;;;;;;;6.65;4.57;;;;;;;;;;5057587;28;20098;-72
2021/09/12 01:24:28;;;;;;;9.50;3.92;;;;;;;;;;5064009;28;20123;-72
2021/09/12 01:26:55;;;;;;;7.30;4.07;;;;;;;;;;5061738;28;20028;-72
2021/09/12 01:29:21;;;;;;;7.18;4.10;;;;;;;;;;5062128;28;20029;-71
2021/09/12 01:31:47;;;;;;;5.47;3.72;;;;;;;;;;5062107;28;20198;-72
2021/09/12 01:34:13;;;;;;;6.43;3.78;;;;;;;;;;5057342;28;20044;-72
2021/09/12 01:36:39;;;;;;;4.90;3.92;;;;;;;;;;5054171;28;21792;-72
2021/09/12 01:39:06;;;;;;;5.30;3.85;;;;;;;;;;5055297;28;20029;-72
2021/09/12 01:41:32;;;;;;;6.80;4.00;;;;;;;;;;5054509;28;20040;-72
2021/09/12 01:43:59;;;;;;;6.57;4.00;;;;;;;;;;5057646;28;20027;-71
2021/09/12 01:46:26;;;;;;;6.57;4.72;;;;;;;;;;5063850;28;20854;-71
2021/09/12 01:48:52;;;;;;;5.40;4.07;;;;;;;;;;5062981;28;20086;-71
2021/09/12 01:51:19;;;;;;;7.60;4.25;;;;;;;;;;5063725;28;20017;-72
2021/09/12 01:53:45;;;;;;;9.95;4.28;;;;;;;;;;5061977;28;20111;-72
2021/09/12 01:56:11;;;;;;;7.80;4.80;;;;;;;;;;5065249;28;20020;-72
2021/09/12 01:58:37;;;;;;;5.15;3.92;;;;;;;;;;5048459;28;20107;-71
2021/09/12 02:01:04;;;;;;;9.63;4.43;;;;;;;;;;5063049;28;20032;-71
2021/09/12 02:03:31;;;;;;;6.47;4.07;;;;;;;;;;5063291;28;20021;-71
2021/09/12 02:05:57;;;;;;;6.85;4.43;;;;;;;;;;5059770;28;20040;-71
2021/09/12 02:08:23;;;;;;;9.48;4.28;;;;;;;;;;5058531;28;20046;-71
2021/09/12 02:10:49;;;;;;;5.00;4.50;;;;;;;;;;5056293;28;20073;-72
2021/09/12 02:13:17;;;;;;;11.70;4.75;;;;;;;;;;5057453;28;20048;-72
2021/09/12 02:15:43;;;;;;;7.22;4.80;;;;;;;;;;5063078;28;20025;-72
2021/09/12 02:18:09;;;;;;;15.40;5.25;;;;;;;;;;5061374;28;20100;-71
2021/09/12 02:20:36;;;;;;;5.53;5.00;;;;;;;;;;5058801;28;20549;-72
2021/09/12 02:23:02;;;;;;;8.40;5.38;;;;;;;;;;5064454;28;20048;-72
2021/09/12 02:25:28;;;;;;;6.65;4.95;;;;;;;;;;5063446;28;20048;-72
2021/09/12 02:27:54;;;;;;;8.57;5.47;;;;;;;;;;5060762;28;20025;-71
2021/09/12 02:30:20;;;;;;;5.25;4.50;;;;;;;;;;5060647;28;20025;-71
2021/09/12 02:32:46;;;;;;;7.60;5.00;;;;;;;;;;5064516;28;20025;-71
2021/09/12 02:35:13;;;;;;;6.15;5.15;;;;;;;;;;5046360;28;20029;-71
2021/09/12 02:37:39;;;;;;;7.45;5.93;;;;;;;;;;5065909;28;20028;-71
2021/09/12 02:40:05;;;;;;;8.95;6.05;;;;;;;;;;5064381;28;20031;-71
2021/09/12 02:42:31;;;;;;;7.70;5.22;;;;;;;;;;5061777;28;20032;-71
2021/09/12 02:44:58;;;;;;;14.77;6.30;;;;;;;;;;5062167;28;20033;-72
2021/09/12 02:47:24;;;;;;;8.05;5.40;;;;;;;;;;5066291;28;20043;-72
2021/09/12 02:49:50;;;;;;;8.27;5.53;;;;;;;;;;5061233;28;20027;-72
2021/09/12 02:52:16;;;;;;;6.88;6.03;;;;;;;;;;5063241;28;20032;-71
2021/09/12 02:54:42;;;;;;;7.78;5.25;;;;;;;;;;5060712;28;20117;-72
2021/09/12 02:57:08;;;;;;;8.48;5.68;;;;;;;;;;5061748;28;20024;-72
2021/09/12 02:59:34;;;;;;;6.72;5.88;;;;;;;;;;5058409;28;20031;-72
2021/09/12 03:02:01;;;;;;;10.90;6.20;;;;;;;;;;5056193;28;20108;-71
2021/09/12 03:04:27;;;;;;;6.68;6.00;;;;;;;;;;5054936;28;20031;-72
2021/09/12 03:06:53;;;;;;;8.77;5.90;;;;;;;;;;5056126;28;20032;-72
2021/09/12 03:09:19;;;;;;;6.57;5.75;;;;;;;;;;5055360;28;20032;-71
2021/09/12 03:11:45;;;;;;;8.43;6.18;;;;;;;;;;5059378;28;20446;-72
2021/09/12 03:14:12;;;;;;;7.10;6.22;;;;;;;;;;5052219;28;20100;-72
2021/09/12 03:16:38;;;;;;;6.40;5.75;;;;;;;;;;5055487;28;20037;-71
2021/09/12 03:19:04;;;;;;;8.73;5.93;;;;;;;;;;5054512;28;20472;-72
2021/09/12 03:21:30;;;;;;;8.75;6.93;;;;;;;;;;5055557;28;20039;-72
2021/09/12 03:23:56;;;;;;;8.82;6.32;;;;;;;;;;5052773;28;20042;-72
2021/09/12 03:26:22;;;;;;;7.43;6.20;;;;;;;;;;5054646;28;20017;-72
2021/09/12 03:28:49;;;;;;;7.40;5.82;;;;;;;;;;5053927;28;20028;-72
2021/09/12 03:31:15;;;;;;;10.10;6.43;;;;;;;;;;5054008;28;20391;-72
2021/09/12 03:33:41;;;;;;;7.97;6.68;;;;;;;;;;5053709;28;20046;-72
2021/09/12 03:36:07;;;;;;;7.97;6.03;;;;;;;;;;5052683;28;20033;-71
2021/09/12 03:38:33;;;;;;;14.38;7.20;;;;;;;;;;5053540;28;20032;-71
2021/09/12 03:40:59;;;;;;;7.00;6.35;;;;;;;;;;5053696;28;20506;-72
2021/09/12 03:43:25;;;;;;;9.48;6.20;;;;;;;;;;5054556;28;20476;-71
2021/09/12 03:45:55;;;;;;;10.80;6.97;;;;;;;;;;5052614;28;20028;-71
2021/09/12 03:48:22;;;;;;;13.63;7.57;;;;;;;;;;5055065;28;20028;-72
2021/09/12 03:50:48;;;;;;;10.32;6.57;;;;;;;;;;5053971;28;20036;-72
2021/09/12 03:53:14;;;;;;;8.02;6.72;;;;;;;;;;5053737;28;21001;-72
2021/09/12 03:55:40;;;;;;;9.30;7.28;;;;;;;;;;5053141;28;20048;-72
2021/09/12 03:58:06;;;;;;;8.13;6.57;;;;;;;;;;5055114;28;20153;-72
2021/09/12 04:00:32;;;;;;;10.73;7.10;;;;;;;;;;5055028;28;20032;-71
2021/09/12 04:02:59;;;;;;;11.77;7.18;;;;;;;;;;5053680;28;21324;-71
2021/09/12 04:05:25;;;;;;;11.73;7.35;;;;;;;;;;5042117;28;20028;-72
2021/09/12 04:07:51;;;;;;;10.25;7.00;;;;;;;;;;5052616;28;20060;-71
2021/09/12 04:10:17;;;;;;;12.10;6.88;;;;;;;;;;5054947;28;20085;-72
2021/09/12 04:12:44;;;;;;;11.32;7.30;;;;;;;;;;5055036;28;20025;-71
2021/09/12 04:15:10;;;;;;;10.10;6.90;;;;;;;;;;5054401;28;20089;-71
2021/09/12 04:17:37;;;;;;;8.45;7.20;;;;;;;;;;5054027;28;20862;-71
2021/09/12 04:20:04;;;;;;;11.18;7.18;;;;;;;;;;5049882;28;20823;-72
2021/09/12 04:22:31;;;;;;;8.95;7.38;;;;;;;;;;5052247;28;20458;-72
2021/09/12 04:24:57;;;;;;;9.80;6.72;;;;;;;;;;5051674;28;20035;-71
2021/09/12 04:27:23;;;;;;;9.90;6.97;;;;;;;;;;5052606;28;20113;-72
2021/09/12 04:29:49;;;;;;;13.70;8.05;;;;;;;;;;5052325;28;20040;-71
2021/09/12 04:32:16;;;;;;;13.13;7.88;;;;;;;;;;5050726;28;20024;-72
2021/09/12 04:34:45;;;;;;;7.80;7.00;;;;;;;;;;5051745;28;20024;-71
2021/09/12 04:37:12;;;;;;;11.23;7.28;;;;;;;;;;5051576;28;20041;-72
2021/09/12 04:39:38;;;;;;;13.52;7.45;;;;;;;;;;5053044;28;20036;-71
2021/09/12 04:42:04;;;;;;;8.20;6.97;;;;;;;;;;5052687;28;20042;-71
2021/09/12 04:44:31;;;;;;;10.23;8.32;;;;;;;;;;5054132;28;20024;-71
2021/09/12 04:46:57;;;;;;;11.88;7.82;;;;;;;;;;5057342;28;20028;-72
2021/09/12 04:49:23;;;;;;;10.05;6.90;;;;;;;;;;5058052;28;20028;-72
2021/09/12 04:51:49;;;;;;;10.38;7.85;;;;;;;;;;5055487;28;20029;-71
2021/09/12 04:54:15;;;;;;;15.15;7.85;;;;;;;;;;5044990;28;20037;-71
2021/09/12 04:56:41;;;;;;;10.48;7.80;;;;;;;;;;5042791;28;20039;-71
2021/09/12 04:59:08;;;;;;;8.80;7.90;;;;;;;;;;5054698;28;20028;-72
2021/09/12 05:01:34;;;;;;;10.27;7.70;;;;;;;;;;5059245;28;20642;-71
2021/09/12 05:04:01;;;;;;;11.23;8.10;;;;;;;;;;5047401;28;20036;-72
2021/09/12 05:06:27;;;;;;;9.30;7.88;;;;;;;;;;5061110;28;20024;-71
2021/09/12 05:08:53;;;;;;;11.80;8.20;;;;;;;;;;5063039;28;20586;-74
2021/09/12 05:11:19;;;;;;;9.15;8.10;;;;;;;;;;5039869;28;20525;-72
2021/09/12 05:13:46;;;;;;;8.68;7.78;;;;;;;;;;5062493;28;20067;-71
2021/09/12 05:16:12;;;;;;;11.77;8.18;;;;;;;;;;5058391;28;20418;-72
2021/09/12 05:18:38;;;;;;;9.77;8.73;;;;;;;;;;5043303;28;20098;-72
2021/09/12 05:21:04;;;;;;;13.07;8.80;;;;;;;;;;5037545;28;20017;-73
2021/09/12 05:23:30;;;;;;;9.50;8.50;;;;;;;;;;5041315;28;20044;-73
2021/09/12 05:25:56;;;;;;;9.18;8.27;;;;;;;;;;5038676;28;20742;-73
2021/09/12 05:28:23;;;;;;;10.80;8.48;;;;;;;;;;5040733;28;20074;-73
2021/09/12 05:30:49;;;;;;;12.73;9.60;;;;;;;;;;5041895;28;20530;-73
2021/09/12 05:33:15;;;;;;;14.20;9.00;;;;;;;;;;5039209;28;20033;-73
2021/09/12 05:35:41;;;;;;;11.10;8.98;;;;;;;;;;5043257;28;20029;-73
2021/09/12 05:38:08;;;;;;;11.48;9.48;;;;;;;;;;5040097;28;20025;-73
2021/09/12 05:40:35;;;;;;;9.73;8.10;;;;;;;;;;5033280;28;20039;-74
2021/09/12 05:43:01;;;;;;;10.15;8.15;;;;;;;;;;5039068;28;20483;-73
2021/09/12 05:45:27;;;;;;;9.68;8.68;;;;;;;;;;5041249;28;20013;-73
2021/09/12 05:47:54;;;;;;;11.20;8.52;;;;;;;;;;5035160;28;20481;-73
2021/09/12 05:50:20;;;;;;;20.88;11.23;;;;;;;;;;5029679;28;20036;-73
2021/09/12 05:52:46;;;;;;;16.42;10.00;;;;;;;;;;5035508;28;20066;-73
2021/09/12 05:55:12;;;;;;;13.82;10.07;;;;;;;;;;5040261;28;20594;-73
2021/09/12 05:57:38;;;;;;;14.70;9.23;;;;;;;;;;5038351;28;21607;-73
2021/09/12 06:00:05;;;;;;;16.13;10.13;;;;;;;;;;5041646;28;21110;-74
2021/09/12 06:02:31;;;;;;;13.35;10.00;;;;;;;;;;5033684;28;20049;-73
2021/09/12 06:05:02;;;;;;;12.00;10.23;;;;;;;;;;5036991;28;20021;-73
2021/09/12 06:07:29;;;;;;;10.57;9.45;;;;;;;;;;5035503;28;20033;-73
2021/09/12 06:09:55;;;;;;;11.95;9.90;;;;;;;;;;5030774;28;20041;-73
2021/09/12 06:12:21;;;;;;;11.65;10.18;;;;;;;;;;5034378;28;20445;-73
2021/09/12 06:14:47;;;;;;;13.30;10.10;;;;;;;;;;5038305;28;20029;-73
2021/09/12 06:17:13;;;;;;;11.52;10.32;;;;;;;;;;5043143;28;20021;-73
2021/09/12 06:19:39;;;;;;;10.00;9.10;;;;;;;;;;5052893;28;20040;-73
2021/09/12 06:22:06;;;;;;;10.32;9.32;;;;;;;;;;5058592;28;20055;-73
2021/09/12 06:24:33;;;;;;;11.85;10.18;;;;;;;;;;5062545;28;20032;-73
2021/09/12 06:26:59;;;;;;;11.23;10.25;;;;;;;;;;5045174;28;20182;-73
2021/09/12 06:29:25;;;;;;;11.77;10.20;;;;;;;;;;5063210;28;20031;-73
2021/09/12 06:31:51;;;;;;;10.82;9.82;;;;;;;;;;5061102;28;20029;-73
2021/09/12 06:34:17;;;;;;;11.18;10.18;;;;;;;;;;5056867;28;20020;-73
2021/09/12 06:36:44;;;;;;;11.20;10.05;;;;;;;;;;5060158;28;20032;-73
2021/09/12 06:39:10;;;;;;;11.20;10.13;;;;;;;;;;5062884;28;20104;-73
2021/09/12 06:41:36;;;;;;;11.05;9.93;;;;;;;;;;5061676;28;20040;-73
2021/09/12 06:44:03;;;;;;;10.32;9.32;;;;;;;;;;5062445;28;20442;-73
2021/09/12 06:46:29;;;;;;;11.82;10.73;;;;;;;;;;5062582;28;20077;-72
2021/09/12 06:48:55;;;;;;;11.48;10.15;;;;;;;;;;5059931;28;20028;-73
2021/09/12 06:51:21;;;;;;;11.77;10.68;;;;;;;;;;5056548;28;20262;-73
2021/09/12 06:53:47;;;;;;;12.02;10.82;;;;;;;;;;5060674;28;20031;-73
2021/09/12 06:56:13;;;;;;;10.52;9.52;;;;;;;;;;5061325;28;20051;-74
2021/09/12 06:58:42;;;;;;;11.27;10.18;;;;;;;;;;5062342;28;20025;-73
2021/09/12 07:01:08;;;;;;;12.32;10.65;;;;;;;;;;5060786;28;20846;-73
2021/09/12 07:03:34;;;;;;;11.13;10.02;;;;;;;;;;5060065;28;20024;-73
2021/09/12 07:06:00;;;;;;;13.70;11.95;;;;;;;;;;5058855;28;20032;-72
2021/09/12 07:08:26;;;;;;;13.32;10.43;;;;;;;;;;5055347;28;20032;-73
2021/09/12 07:10:52;;;;;;;14.27;10.55;;;;;;;;;;5053363;28;20025;-73
2021/09/12 07:13:19;;;;;;;12.20;10.32;;;;;;;;;;5061509;28;20035;-74
2021/09/12 07:15:45;;;;;;;10.60;9.38;;;;;;;;;;5062064;28;20077;-75
2021/09/12 07:18:11;;;;;;;11.52;9.88;;;;;;;;;;5060843;28;20056;-73
2021/09/12 07:20:37;;;;;;;11.10;8.85;;;;;;;;;;5060787;28;20058;-74
2021/09/12 07:23:03;;;;;;;10.20;9.20;;;;;;;;;;5061201;28;20032;-73
2021/09/12 07:25:30;;;;;;;9.77;8.77;;;;;;;;;;5060472;28;20043;-73
2021/09/12 07:27:57;;;;;;;10.38;9.05;;;;;;;;;;5060593;28;20111;-74
2021/09/12 07:30:23;;;;;;;11.18;9.45;;;;;;;;;;5055450;28;20024;-73
2021/09/12 07:32:50;;;;;;;10.90;8.57;;;;;;;;;;5059422;28;20020;-73
2021/09/12 07:35:16;;;;;;;12.23;9.63;;;;;;;;;;5059791;28;20044;-73
2021/09/12 07:37:43;;;;;;;12.63;9.60;;;;;;;;;;5057610;28;20037;-73
2021/09/12 07:40:09;;;;;;;11.18;9.90;;;;;;;;;;5060236;28;20036;-73
2021/09/12 07:42:35;;;;;;;11.20;9.48;;;;;;;;;;5057161;28;20500;-73
2021/09/12 07:45:01;;;;;;;10.07;9.18;;;;;;;;;;5067804;28;20020;-73
2021/09/12 07:47:28;;;;;;;9.98;9.10;;;;;;;;;;5060092;28;20024;-74
2021/09/12 07:49:54;;;;;;;9.75;8.75;;;;;;;;;;5056857;28;20073;-73
2021/09/12 07:52:20;;;;;;;10.73;9.63;;;;;;;;;;5061084;28;20104;-73
2021/09/12 07:54:46;;;;;;;9.98;8.98;;;;;;;;;;5043592;28;20031;-73
2021/09/12 07:57:12;;;;;;;9.85;8.90;;;;;;;;;;5053279;28;20055;-73
2021/09/12 07:59:38;;;;;;;10.13;9.13;;;;;;;;;;5058501;28;20020;-74
2021/09/12 08:02:05;;;;;;;10.20;8.85;;;;;;;;;;5059124;28;20032;-74
2021/09/12 08:04:31;;;;;;;9.57;8.65;;;;;;;;;;5059816;28;20104;-74
2021/09/12 08:06:57;;;;;;;12.95;9.82;;;;;;;;;;5060786;28;20023;-73
2021/09/12 08:09:23;;;;;;;10.85;9.85;;;;;;;;;;5061112;28;20236;-73
2021/09/12 08:11:49;;;;;;;10.60;9.50;;;;;;;;;;5060485;28;20028;-73
2021/09/12 08:14:15;;;;;;;12.27;9.25;;;;;;;;;;5055052;28;20036;-73
2021/09/12 08:16:42;;;;;;;11.50;9.82;;;;;;;;;;5050762;28;20054;-74
2021/09/12 08:19:08;;;;;;;9.70;8.80;;;;;;;;;;5059028;28;20042;-73
2021/09/12 08:21:34;;;;;;;10.40;9.30;;;;;;;;;;5058026;28;20112;-74
2021/09/12 08:24:00;;;;;;;10.52;9.63;;;;;;;;;;5060744;28;20020;-73
2021/09/12 08:26:26;;;;;;;11.23;9.50;;;;;;;;;;5059856;28;20220;-74
2021/09/12 08:28:52;;;;;;;11.20;9.95;;;;;;;;;;5056741;28;20027;-73
2021/09/12 08:31:18;;;;;;;10.48;9.38;;;;;;;;;;5064707;28;20504;-74
2021/09/12 08:33:45;;;;;;;9.90;9.02;;;;;;;;;;5064900;28;20099;-73
2021/09/12 08:36:11;;;;;;;10.52;9.52;;;;;;;;;;5064384;28;20025;-74
2021/09/12 08:38:37;;;;;;;11.05;9.95;;;;;;;;;;5046881;28;20394;-73
2021/09/12 08:41:03;;;;;;;10.30;9.20;;;;;;;;;;5062522;28;20051;-73
2021/09/12 08:43:30;;;;;;;10.38;9.38;;;;;;;;;;5062250;28;20029;-73
2021/09/12 08:45:57;;;;;;;10.75;9.73;;;;;;;;;;5062743;28;20025;-73
2021/09/12 08:48:23;;;;;;;11.00;9.85;;;;;;;;;;5055766;28;20025;-73
2021/09/12 08:50:49;;;;;;;10.68;9.68;;;;;;;;;;5055460;28;20024;-74
2021/09/12 08:53:15;;;;;;;10.32;9.35;;;;;;;;;;5064116;28;20020;-74
2021/09/12 08:55:41;;;;;;;11.15;9.60;;;;;;;;;;5062099;28;20031;-75
2021/09/12 08:58:08;;;;;;;9.90;8.98;;;;;;;;;;5059134;28;20020;-74
2021/09/12 09:00:34;;;;;;;11.35;10.15;;;;;;;;;;5063920;28;20043;-74
2021/09/12 09:03:01;;;;;;;10.65;9.65;;;;;;;;;;5061883;28;20105;-73
2021/09/12 09:05:32;;;;;;;10.07;9.07;;;;;;;;;;5062914;28;20029;-73
2021/09/12 09:08:04;;;;;;;9.80;8.80;;;;;;;;;;5060839;28;20780;-74
2021/09/12 09:10:52;;;;;;;10.65;9.57;;;;;;;;;;5042683;28;20475;-74
2021/09/12 09:13:34;;;;;;;9.57;8.68;;;;;;;;;;5062764;28;20020;-75
2021/09/12 09:16:02;;;;;;;9.57;8.50;;;;;;;;;;5058186;28;20025;-74
2021/09/12 09:18:41;;;;;;;10.30;8.98;;;;;;;;;;5042321;28;20036;-74
2021/09/12 09:21:27;;;;;;;9.85;8.95;;;;;;;;;;5061734;28;20472;-74
2021/09/12 09:24:10;;;;;;;10.18;9.10;;;;;;;;;;5061139;28;20078;-75
2021/09/12 09:26:38;;;;;;;9.88;8.70;;;;;;;;;;5063876;28;20031;-74
2021/09/12 09:29:04;;;;;;;10.10;8.63;;;;;;;;;;5061884;28;20031;-74
2021/09/12 09:31:31;;;;;;;8.98;8.18;;;;;;;;;;5057767;28;20029;-74
2021/09/12 09:33:57;;;;;;;11.63;9.40;;;;;;;;;;5054449;28;20028;-75
2021/09/12 09:36:30;;;;;;;10.23;9.23;;;;;;;;;;5063858;28;20435;-74
2021/09/12 09:38:56;;;;;;;10.23;9.13;;;;;;;;;;5061195;28;20032;-74
2021/09/12 09:41:22;;;;;;;10.80;9.27;;;;;;;;;;5062594;28;20028;-74
2021/09/12 09:43:49;;;;;;;10.02;9.10;;;;;;;;;;5063235;28;20120;-74
2021/09/12 09:46:29;;;;;;;10.02;9.15;;;;;;;;;;5062234;28;20032;-75
2021/09/12 09:48:57;;;;;;;11.05;9.55;;;;;;;;;;5061767;28;20016;-75
2021/09/12 09:51:23;;;;;;;10.82;9.35;;;;;;;;;;5061350;28;20503;-74
2021/09/12 09:53:50;;;;;;;11.05;9.85;;;;;;;;;;5059811;28;20617;-74
2021/09/12 09:56:16;;;;;;;10.50;9.48;;;;;;;;;;5063355;28;20054;-74
2021/09/12 09:58:43;;;;;;;11.68;10.45;;;;;;;;;;5059114;28;20027;-74
2021/09/12 10:01:09;;;;;;;11.88;10.65;;;;;;;;;;5053544;28;20029;-75
2021/09/12 10:03:36;;;;;;;10.30;9.15;;;;;;;;;;5061211;28;20554;-74
2021/09/12 10:06:02;;;;;;;11.45;10.30;;;;;;;;;;5063433;28;20078;-74
2021/09/12 10:08:28;;;;;;;12.25;10.93;;;;;;;;;;5062923;28;20028;-74
2021/09/12 10:10:55;;;;;;;11.57;10.43;;;;;;;;;;5063187;28;20029;-74
2021/09/12 10:13:23;;;;;;;11.65;10.60;;;;;;;;;;5059737;28;20034;-74
2021/09/12 10:15:51;;;;;;;12.05;10.80;;;;;;;;;;5058626;28;20029;-74
2021/09/12 10:18:23;;;;;;;11.88;10.68;;;;;;;;;;5060440;28;20025;-74
2021/09/12 10:20:49;;;;;;;;;;;;;;;;;;5062979;28;20037;-74
2021/09/12 10:23:15;;;;;;;12.13;10.93;;;;;;;;;;5044434;28;19965;-74
2021/09/12 10:25:50;;;;;;;12.90;11.60;;;;;;;;;;5062330;28;20025;-74
2021/09/12 10:28:30;;;;;;;12.35;11.15;;;;;;;;;;5062439;28;20046;-74
2021/09/12 10:30:56;;;;;;;12.52;11.35;;;;;;;;;;5052788;28;20025;-75
2021/09/12 10:33:25;;;;;;;12.48;11.18;;;;;;;;;;5059996;28;20024;-74
2021/09/12 10:35:59;;;;;;;12.73;11.40;;;;;;;;;;5061018;28;20029;-75
2021/09/12 10:38:36;;;;;;;11.88;10.77;;;;;;;;;;5062336;28;20021;-75
2021/09/12 10:41:02;;;;;;;14.68;11.05;;;;;;;;;;5061626;28;20036;-74
2021/09/12 10:43:29;;;;;;;12.63;11.25;;;;;;;;;;5062165;28;20048;-75
2021/09/12 10:46:04;;;;;;;11.77;10.57;;;;;;;;;;5062318;28;20186;-74
2021/09/12 10:48:37;;;;;;;14.88;12.38;;;;;;;;;;5053627;28;20029;-74
2021/09/12 10:51:06;;;;;;;14.60;11.82;;;;;;;;;;5048427;28;20052;-74
2021/09/12 10:56:10;;;;;;;12.52;11.30;;;;;;;;;;5052157;28;20600;-73
2021/09/12 10:58:37;;;;;;;12.75;11.40;;;;;;;;;;5062265;28;20029;-74
2021/09/12 11:01:04;;;;;;;13.98;11.43;;;;;;;;;;5048434;28;20035;-74
2021/09/12 11:03:31;;;;;;;12.73;11.43;;;;;;;;;;5061982;28;20032;-74
2021/09/12 11:05:58;;;;;;;11.70;10.50;;;;;;;;;;5061488;28;20028;-74
2021/09/12 11:08:33;;;;;;;11.20;10.07;;;;;;;;;;5060859;28;20019;-74
2021/09/12 11:10:59;;;;;;;12.82;10.90;;;;;;;;;;5040940;28;20057;-74
2021/09/12 11:13:26;;;;;;;11.38;10.43;;;;;;;;;;5060732;28;20028;-74
2021/09/12 11:15:56;;;;;;;12.23;10.75;;;;;;;;;;5060934;28;20107;-74
2021/09/12 11:18:22;;;;;;;11.93;10.73;;;;;;;;;;5061444;28;20081;-75
2021/09/12 11:20:49;;;;;;;12.25;11.00;;;;;;;;;;5053348;28;20049;-74
2021/09/12 11:23:28;;;;;;;11.80;10.70;;;;;;;;;;5059005;28;20403;-74
2021/09/12 11:25:57;;;;;;;12.38;11.02;;;;;;;;;;5061512;28;20464;-75
2021/09/12 11:28:26;;;;;;;12.07;10.98;;;;;;;;;;5060893;28;20472;-75
2021/09/12 11:30:52;;;;;;;12.52;11.25;;;;;;;;;;5060060;28;20171;-75
2021/09/12 11:33:18;;;;;;;13.10;10.98;;;;;;;;;;5059667;28;20073;-75
2021/09/12 11:36:00;;;;;;;11.38;10.35;;;;;;;;;;5061366;28;20032;-76
2021/09/12 11:38:28;;;;;;;13.23;11.02;;;;;;;;;;5060275;28;20655;-75
2021/09/12 11:40:58;;;;;;;12.38;11.27;;;;;;;;;;5060888;28;20042;-75
2021/09/12 11:43:24;;;;;;;12.65;11.27;;;;;;;;;;5058775;28;20037;-74
2021/09/12 11:46:03;;;;;;;12.73;11.40;;;;;;;;;;5060292;28;20020;-74
2021/09/12 11:48:30;;;;;;;13.15;11.05;;;;;;;;;;5054338;28;20021;-74
2021/09/12 11:50:56;;;;;;;13.55;11.40;;;;;;;;;;5059745;28;20036;-73
2021/09/12 11:53:25;;;;;;;13.15;11.75;;;;;;;;;;5059382;28;20028;-76
2021/09/12 11:55:51;;;;;;;13.00;11.52;;;;;;;;;;5059960;28;20028;-73
2021/09/12 11:58:18;;;;;;;13.07;11.05;;;;;;;;;;5061023;28;20158;-74
2021/09/12 12:00:47;;;;;;;12.32;11.02;;;;;;;;;;5050500;28;20032;-74
2021/09/12 12:03:14;;;;;;;14.43;11.00;;;;;;;;;;5049304;28;20476;-73
2021/09/12 12:05:41;;;;;;;13.40;11.68;;;;;;;;;;5058623;28;20016;-73
2021/09/12 12:08:10;;;;;;;12.05;10.88;;;;;;;;;;5057819;28;20562;-74
2021/09/12 12:10:40;;;;;;;13.85;11.27;;;;;;;;;;5057661;28;20033;-74
2021/09/12 12:13:07;;;;;;;13.25;11.85;;;;;;;;;;5059413;28;20028;-74
2021/09/12 12:15:33;;;;;;;12.77;11.43;;;;;;;;;;5060548;28;20040;-74
2021/09/12 12:17:59;;;;;;;12.30;11.15;;;;;;;;;;5059053;28;20499;-74
2021/09/12 12:20:25;;;;;;;12.32;11.15;;;;;;;;;;5058518;28;20072;-74
2021/09/12 12:22:51;;;;;;;12.75;11.38;;;;;;;;;;5060127;28;20140;-74
2021/09/12 12:25:28;;;;;;;13.18;11.10;;;;;;;;;;5060822;28;20423;-74
2021/09/12 12:27:54;;;;;;;13.02;11.82;;;;;;;;;;5053195;28;20033;-73
2021/09/12 12:30:20;;;;;;;12.95;11.35;;;;;;;;;;5056622;28;20025;-74
2021/09/12 12:32:46;;;;;;;12.95;11.65;;;;;;;;;;5060255;28;20089;-74
2021/09/12 12:35:17;;;;;;;12.90;10.70;;;;;;;;;;5060376;28;20059;-74
2021/09/12 12:37:44;;;;;;;12.55;11.35;;;;;;;;;;5057261;28;20139;-73
2021/09/12 12:40:10;;;;;;;11.93;10.82;;;;;;;;;;5055626;28;20067;-73
2021/09/12 12:42:40;;;;;;;13.02;11.73;;;;;;;;;;5058714;28;20041;-73
2021/09/12 12:45:19;;;;;;;13.90;11.52;;;;;;;;;;5060479;28;20028;-72
2021/09/12 12:47:45;;;;;;;13.02;11.60;;;;;;;;;;5057270;28;20048;-73
2021/09/12 12:50:11;;;;;;;12.85;11.38;;;;;;;;;;5059500;28;20494;-73
2021/09/12 12:52:37;;;;;;;12.32;11.00;;;;;;;;;;5059041;28;20040;-73
2021/09/12 12:55:07;;;;;;;11.45;10.35;;;;;;;;;;5058594;28;20021;-73
2021/09/12 12:57:34;;;;;;;12.32;11.10;;;;;;;;;;5056630;28;20029;-71
2021/09/12 13:00:01;;;;;;;12.13;10.93;;;;;;;;;;5053512;28;20581;-73
2021/09/12 13:02:27;;;;;;;11.88;10.77;;;;;;;;;;5057448;28;20091;-72
2021/09/12 13:04:53;;;;;;;11.25;10.25;;;;;;;;;;5055047;28;20121;-73
2021/09/12 13:07:19;;;;;;;11.95;10.70;;;;;;;;;;5053106;28;20539;-73
2021/09/12 13:09:45;;;;;;;12.95;11.50;;;;;;;;;;5055492;28;20029;-73
2021/09/12 13:12:11;;;;;;;11.35;10.25;;;;;;;;;;5048262;28;20067;-73
2021/09/12 13:14:38;;;;;;;16.63;11.13;;;;;;;;;;5057189;28;20116;-73
2021/09/12 13:17:04;;;;;;;12.18;10.82;;;;;;;;;;5042181;28;20472;-73
2021/09/12 13:19:31;;;;;;;12.23;11.13;;;;;;;;;;5059798;28;20102;-73
2021/09/12 13:21:57;;;;;;;11.68;10.52;;;;;;;;;;5059463;28;20123;-73
2021/09/12 13:24:23;;;;;;;11.90;10.70;;;;;;;;;;5050934;28;20020;-73
2021/09/12 13:26:49;;;;;;;11.90;10.75;;;;;;;;;;5044435;28;20028;-72
2021/09/12 13:29:15;;;;;;;13.18;10.15;;;;;;;;;;5051674;28;20092;-73
2021/09/12 13:31:42;;;;;;;12.68;10.52;;;;;;;;;;5044850;28;20689;-72
2021/09/12 13:34:08;;;;;;;12.43;10.35;;;;;;;;;;5045375;28;20673;-73
2021/09/12 13:36:35;;;;;;;11.15;10.20;;;;;;;;;;5042416;28;20039;-73
2021/09/12 13:39:01;;;;;;;12.23;11.02;;;;;;;;;;5039847;28;20025;-72
2021/09/12 13:41:28;;;;;;;11.45;10.43;;;;;;;;;;5043451;28;20033;-73
2021/09/12 13:43:55;;;;;;;12.23;11.05;;;;;;;;;;5047134;28;20062;-72
2021/09/12 13:46:21;;;;;;;12.48;11.27;;;;;;;;;;5055212;28;20024;-72
2021/09/12 13:48:47;;;;;;;12.57;11.38;;;;;;;;;;5058552;28;20090;-72
2021/09/12 13:51:15;;;;;;;11.70;10.70;;;;;;;;;;5058559;28;20029;-72
2021/09/12 13:53:41;;;;;;;12.27;10.57;;;;;;;;;;5060546;28;20036;-72
2021/09/12 13:56:07;;;;;;;12.20;10.68;;;;;;;;;;5060014;28;20111;-72
2021/09/12 13:58:34;;;;;;;11.98;10.77;;;;;;;;;;5061386;28;20056;-72
2021/09/12 14:01:00;;;;;;;11.85;10.85;;;;;;;;;;5053779;28;21977;-74
2021/09/12 14:03:26;;;;;;;11.40;10.20;;;;;;;;;;5060797;28;20500;-72
2021/09/12 14:05:52;;;;;;;10.77;9.77;;;;;;;;;;5051781;28;20024;-73
2021/09/12 14:08:19;;;;;;;13.15;10.38;;;;;;;;;;5043464;28;20028;-73
2021/09/12 14:10:46;;;;;;;11.93;10.73;;;;;;;;;;5039369;28;20066;-73
2021/09/12 14:13:12;;;;;;;12.07;10.77;;;;;;;;;;5040322;28;20539;-72
2021/09/12 14:15:44;;;;;;;23.55;11.63;;;;;;;;;;5048912;28;20600;-73
2021/09/12 14:18:10;;;;;;;12.70;11.15;;;;;;;;;;5044811;28;20021;-73
2021/09/12 14:20:36;;;;;;;12.70;11.02;;;;;;;;;;5060264;28;20060;-73
2021/09/12 14:23:03;;;;;;;11.90;9.43;;;;;;;;;;5058326;28;20040;-72
2021/09/12 14:25:29;;;;;;;11.50;10.50;;;;;;;;;;5056909;28;20108;-72
2021/09/12 14:27:55;;;;;;;11.55;10.43;;;;;;;;;;5032253;28;20394;-72
2021/09/12 14:30:22;;;;;;;11.45;10.23;;;;;;;;;;5054829;28;20033;-75